Time,TemperatureF,DewpointF,PressureIn,WindDirection,WindDirectionDegrees,WindSpeedMPH,WindSpeedGustMPH,Humidity,HourlyPrecipIn,Conditions,Clouds,dailyrainin,SolarRadiationWatts/m^2,SoftwareType,DateUTC
2013-06-04 00:02:00,57.0,52.0,-100.00,SSE,157,2.0,6.0,82,0.00,,,0.00,0.000000,,2013-06-04 05:02:00,
2013-06-04 00:32:00,57.0,52.0,-100.00,ESE,107,6.0,10.0,82,0.00,,,0.00,0.000000,,2013-06-04 05:32:00,
2013-06-04 00:42:00,57.0,52.0,-100.00,ESE,107,6.0,10.0,82,0.00,,,0.00,0.000000,,2013-06-04 05:42:00,
2013-06-04 00:52:00,57.0,52.0,-100.00,ESE,107,6.0,10.0,82,0.00,,,0.00,0.000000,,2013-06-04 05:52:00,
2013-06-04 01:02:00,57.0,52.0,-100.00,ESE,107,6.0,10.0,82,0.00,,,0.00,0.000000,,2013-06-04 06:02:00,
2013-06-04 01:32:00,57.0,52.0,-100.00,SE,137,3.0,10.0,83,0.00,,,0.00,0.000000,,2013-06-04 06:32:00,
2013-06-04 01:42:00,57.0,52.0,-100.00,SE,137,3.0,10.0,83,0.00,,,0.00,0.000000,,2013-06-04 06:42:00,
2013-06-04 01:52:00,57.0,52.0,-100.00,SE,137,3.0,10.0,83,0.00,,,0.00,0.000000,,2013-06-04 06:52:00,
2013-06-04 02:02:00,57.0,52.0,-100.00,SE,137,3.0,10.0,83,0.00,,,0.00,0.000000,,2013-06-04 07:02:00,
2013-06-04 02:32:00,56.0,52.0,-100.00,ESE,118,5.0,11.0,85,0.00,,,0.00,0.000000,,2013-06-04 07:32:00,
2013-06-04 02:42:00,56.0,52.0,-100.00,ESE,118,5.0,11.0,85,0.00,,,0.00,0.000000,,2013-06-04 07:42:00,
2013-06-04 02:52:00,56.0,52.0,-100.00,ESE,118,5.0,11.0,85,0.00,,,0.00,0.000000,,2013-06-04 07:52:00,
2013-06-04 03:02:00,56.0,52.0,-100.00,ESE,118,5.0,11.0,85,0.00,,,0.00,0.000000,,2013-06-04 08:02:00,
2013-06-04 03:32:00,56.0,52.0,-100.00,ESE,109,6.0,14.0,85,0.00,,,0.00,0.000000,,2013-06-04 08:32:00,
2013-06-04 03:42:00,56.0,52.0,-100.00,ESE,109,6.0,14.0,85,0.00,,,0.00,0.000000,,2013-06-04 08:42:00,
2013-06-04 03:52:00,56.0,52.0,-100.00,ESE,109,6.0,14.0,85,0.00,,,0.00,0.000000,,2013-06-04 08:52:00,
2013-06-04 04:02:00,56.0,52.0,-100.00,ESE,109,6.0,14.0,85,0.00,,,0.00,0.000000,,2013-06-04 09:02:00,
2013-06-04 04:33:00,56.0,52.0,-100.00,ESE,116,5.0,11.0,86,0.00,,,0.00,0.000000,,2013-06-04 09:33:00,
2013-06-04 04:43:00,56.0,52.0,-100.00,ESE,116,5.0,11.0,86,0.00,,,0.00,0.000000,,2013-06-04 09:43:00,
2013-06-04 04:53:00,56.0,52.0,-100.00,ESE,116,5.0,11.0,86,0.00,,,0.00,0.000000,,2013-06-04 09:53:00,
2013-06-04 05:02:00,56.0,52.0,-100.00,ESE,116,5.0,11.0,86,0.00,,,0.00,0.000000,,2013-06-04 10:02:00,
2013-06-04 05:33:00,56.0,51.0,-100.00,SE,141,5.0,12.0,84,0.00,,,0.00,0.000000,,2013-06-04 10:33:00,
2013-06-04 05:42:00,56.0,51.0,-100.00,SE,141,5.0,12.0,84,0.00,,,0.00,0.000000,,2013-06-04 10:42:00,
2013-06-04 05:53:00,56.0,51.0,-100.00,SE,141,5.0,12.0,84,0.00,,,0.00,0.000000,,2013-06-04 10:53:00,
2013-06-04 06:02:00,56.0,51.0,-100.00,SE,141,5.0,12.0,84,0.00,,,0.00,0.000000,,2013-06-04 11:02:00,
2013-06-04 06:32:00,57.0,52.0,-100.00,South,169,6.0,15.0,82,0.00,,,0.00,2.000000,,2013-06-04 11:32:00,
2013-06-04 06:43:00,57.0,52.0,-100.00,South,169,6.0,15.0,82,0.00,,,0.00,2.000000,,2013-06-04 11:43:00,
2013-06-04 06:52:00,57.0,52.0,-100.00,South,169,6.0,15.0,82,0.00,,,0.00,2.000000,,2013-06-04 11:52:00,
2013-06-04 07:02:00,57.0,52.0,-100.00,South,169,6.0,15.0,82,0.00,,,0.00,2.000000,,2013-06-04 12:02:00,
2013-06-04 07:32:00,56.0,53.0,-100.00,ESE,116,4.0,13.0,90,0.01,,,0.01,5.000000,,2013-06-04 12:32:00,
2013-06-04 07:42:00,56.0,53.0,-100.00,ESE,116,4.0,13.0,90,0.01,,,0.01,5.000000,,2013-06-04 12:42:00,
2013-06-04 07:53:00,56.0,53.0,-100.00,ESE,116,4.0,13.0,90,0.01,,,0.01,5.000000,,2013-06-04 12:53:00,
2013-06-04 08:02:00,56.0,53.0,-100.00,ESE,116,4.0,13.0,90,0.01,,,0.01,5.000000,,2013-06-04 13:02:00,
2013-06-04 08:32:00,55.0,54.0,-100.00,East,91,5.0,9.0,95,0.09,,,0.10,12.000000,,2013-06-04 13:32:00,
2013-06-04 08:42:00,55.0,54.0,-100.00,East,91,5.0,9.0,95,0.09,,,0.10,12.000000,,2013-06-04 13:42:00,
2013-06-04 08:52:00,55.0,54.0,-100.00,East,91,5.0,9.0,95,0.09,,,0.10,12.000000,,2013-06-04 13:52:00,
2013-06-04 09:02:00,55.0,54.0,-100.00,East,91,5.0,9.0,95,0.09,,,0.10,12.000000,,2013-06-04 14:02:00,
2013-06-04 09:32:00,55.0,54.0,-100.00,East,98,7.0,13.0,97,0.04,,,0.14,18.000000,,2013-06-04 14:32:00,
2013-06-04 09:43:00,55.0,54.0,-100.00,East,98,7.0,13.0,97,0.04,,,0.14,18.000000,,2013-06-04 14:43:00,
2013-06-04 09:52:00,55.0,54.0,-100.00,East,98,7.0,13.0,97,0.04,,,0.14,18.000000,,2013-06-04 14:52:00,
2013-06-04 10:02:00,55.0,54.0,-100.00,East,98,7.0,13.0,97,0.04,,,0.14,18.000000,,2013-06-04 15:02:00,
2013-06-04 10:33:00,55.0,55.0,-100.00,East,100,8.0,14.0,100,0.13,,,0.27,27.000000,,2013-06-04 15:33:00,
2013-06-04 10:42:00,55.0,55.0,-100.00,East,100,8.0,14.0,100,0.13,,,0.27,27.000000,,2013-06-04 15:42:00,
2013-06-04 10:53:00,55.0,55.0,-100.00,East,100,8.0,14.0,100,0.13,,,0.27,27.000000,,2013-06-04 15:53:00,
2013-06-04 11:03:00,55.0,55.0,-100.00,East,100,8.0,14.0,100,0.13,,,0.27,27.000000,,2013-06-04 16:03:00,
2013-06-04 11:33:00,59.0,57.0,-100.00,ESE,122,7.0,20.0,92,0.01,,,0.28,193.000000,,2013-06-04 16:33:00,
2013-06-04 11:42:00,59.0,57.0,-100.00,ESE,122,7.0,20.0,92,0.01,,,0.28,193.000000,,2013-06-04 16:42:00,
2013-06-04 11:53:00,59.0,57.0,-100.00,ESE,122,7.0,20.0,92,0.01,,,0.28,193.000000,,2013-06-04 16:53:00,
2013-06-04 12:02:00,59.0,57.0,-100.00,ESE,122,7.0,20.0,92,0.01,,,0.28,193.000000,,2013-06-04 17:02:00,
2013-06-04 12:33:00,62.0,58.0,-100.00,SE,140,6.0,15.0,86,0.00,,,0.28,376.000000,,2013-06-04 17:33:00,
2013-06-04 12:42:00,62.0,58.0,-100.00,SE,140,6.0,15.0,86,0.00,,,0.28,376.000000,,2013-06-04 17:42:00,
2013-06-04 12:52:00,62.0,58.0,-100.00,SE,140,6.0,15.0,86,0.00,,,0.28,376.000000,,2013-06-04 17:52:00,
2013-06-04 13:02:00,62.0,58.0,-100.00,SE,140,6.0,15.0,86,0.00,,,0.28,376.000000,,2013-06-04 18:02:00,
2013-06-04 13:32:00,63.0,58.0,-100.00,SE,140,5.0,15.0,85,0.00,,,0.28,384.000000,,2013-06-04 18:32:00,
2013-06-04 13:42:00,63.0,58.0,-100.00,SE,140,5.0,15.0,85,0.00,,,0.28,384.000000,,2013-06-04 18:42:00,
2013-06-04 13:53:00,63.0,58.0,-100.00,SE,140,5.0,15.0,85,0.00,,,0.28,384.000000,,2013-06-04 18:53:00,
2013-06-04 14:02:00,63.0,58.0,-100.00,SE,140,5.0,15.0,85,0.00,,,0.28,384.000000,,2013-06-04 19:02:00,
2013-06-04 14:33:00,63.0,59.0,-100.00,SE,137,5.0,12.0,86,0.00,,,0.28,196.000000,,2013-06-04 19:33:00,
2013-06-04 14:42:00,63.0,59.0,-100.00,SE,137,5.0,12.0,86,0.00,,,0.28,196.000000,,2013-06-04 19:42:00,
2013-06-04 14:52:00,63.0,59.0,-100.00,SE,137,5.0,12.0,86,0.00,,,0.28,196.000000,,2013-06-04 19:52:00,
2013-06-04 15:03:00,63.0,59.0,-100.00,SE,137,5.0,12.0,86,0.00,,,0.28,196.000000,,2013-06-04 20:03:00,
2013-06-04 15:32:00,70.0,61.0,-100.00,South,175,7.0,13.0,73,0.00,,,0.28,386.000000,,2013-06-04 20:32:00,
2013-06-04 15:42:00,70.0,61.0,-100.00,South,175,7.0,13.0,73,0.00,,,0.28,386.000000,,2013-06-04 20:42:00,
2013-06-04 15:53:00,70.0,61.0,-100.00,South,175,7.0,13.0,73,0.00,,,0.28,386.000000,,2013-06-04 20:53:00,
2013-06-04 16:02:00,70.0,61.0,-100.00,South,175,7.0,13.0,73,0.00,,,0.28,386.000000,,2013-06-04 21:02:00,
2013-06-04 16:33:00,69.0,62.0,-100.00,SSE,168,5.0,13.0,78,0.00,,,0.28,359.000000,,2013-06-04 21:33:00,
2013-06-04 16:42:00,69.0,62.0,-100.00,SSE,168,5.0,13.0,78,0.00,,,0.28,359.000000,,2013-06-04 21:42:00,
2013-06-04 16:53:00,69.0,62.0,-100.00,SSE,168,5.0,13.0,78,0.00,,,0.28,359.000000,,2013-06-04 21:53:00,
2013-06-04 17:02:00,69.0,62.0,-100.00,SSE,168,5.0,13.0,78,0.00,,,0.28,359.000000,,2013-06-04 22:02:00,
2013-06-04 17:33:00,69.0,62.0,-100.00,SE,138,3.0,11.0,79,0.00,,,0.28,297.000000,,2013-06-04 22:33:00,
2013-06-04 17:42:00,69.0,62.0,-100.00,SE,138,3.0,11.0,79,0.00,,,0.28,297.000000,,2013-06-04 22:42:00,
2013-06-04 17:52:00,69.0,62.0,-100.00,SE,138,3.0,11.0,79,0.00,,,0.28,297.000000,,2013-06-04 22:52:00,
2013-06-04 18:02:00,69.0,62.0,-100.00,SE,138,3.0,11.0,79,0.00,,,0.28,297.000000,,2013-06-04 23:02:00,
2013-06-04 18:32:00,70.0,62.0,-100.00,South,176,5.0,9.0,77,0.00,,,0.28,161.000000,,2013-06-04 23:32:00,
2013-06-04 18:42:00,70.0,62.0,-100.00,South,176,5.0,9.0,77,0.00,,,0.28,161.000000,,2013-06-04 23:42:00,
2013-06-04 18:52:00,70.0,62.0,-100.00,South,176,5.0,9.0,77,0.00,,,0.28,161.000000,,2013-06-04 23:52:00,
2013-06-04 19:02:00,70.0,62.0,-100.00,South,176,5.0,9.0,77,0.00,,,0.28,161.000000,,2013-06-05 00:02:00,
2013-06-04 19:33:00,69.0,64.0,-100.00,SSE,165,2.0,10.0,84,0.00,,,0.28,106.000000,,2013-06-05 00:33:00,
2013-06-04 19:42:00,69.0,64.0,-100.00,SSE,165,2.0,10.0,84,0.00,,,0.28,106.000000,,2013-06-05 00:42:00,
2013-06-04 19:52:00,69.0,64.0,-100.00,SSE,165,2.0,10.0,84,0.00,,,0.28,106.000000,,2013-06-05 00:52:00,
2013-06-04 20:02:00,69.0,64.0,-100.00,SSE,165,2.0,10.0,84,0.00,,,0.28,106.000000,,2013-06-05 01:02:00,
2013-06-04 20:32:00,66.0,64.0,-100.00,SE,133,3.0,7.0,94,0.00,,,0.28,33.000000,,2013-06-05 01:32:00,
2013-06-04 20:42:00,66.0,64.0,-100.00,SE,133,3.0,7.0,94,0.00,,,0.28,33.000000,,2013-06-05 01:42:00,
2013-06-04 20:52:00,66.0,64.0,-100.00,SE,133,3.0,7.0,94,0.00,,,0.28,33.000000,,2013-06-05 01:52:00,
2013-06-04 21:02:00,66.0,64.0,-100.00,SE,133,3.0,7.0,94,0.00,,,0.28,33.000000,,2013-06-05 02:02:00,
2013-06-04 21:32:00,65.0,63.0,-100.00,South,173,5.0,9.0,93,0.00,,,0.28,3.000000,,2013-06-05 02:32:00,
2013-06-04 21:42:00,65.0,63.0,-100.00,South,173,5.0,9.0,93,0.00,,,0.28,3.000000,,2013-06-05 02:42:00,
2013-06-04 21:52:00,65.0,63.0,-100.00,South,173,5.0,9.0,93,0.00,,,0.28,3.000000,,2013-06-05 02:52:00,
2013-06-04 22:02:00,65.0,63.0,-100.00,South,173,5.0,9.0,93,0.00,,,0.28,3.000000,,2013-06-05 03:02:00,
2013-06-04 22:33:00,63.0,62.0,-100.00,South,176,2.0,8.0,95,0.00,,,0.28,0.000000,,2013-06-05 03:33:00,
2013-06-04 22:43:00,63.0,62.0,-100.00,South,176,2.0,8.0,95,0.00,,,0.28,0.000000,,2013-06-05 03:43:00,
2013-06-04 22:53:00,63.0,62.0,-100.00,South,176,2.0,8.0,95,0.00,,,0.28,0.000000,,2013-06-05 03:53:00,
2013-06-04 23:02:00,63.0,62.0,-100.00,South,176,2.0,8.0,95,0.00,,,0.28,0.000000,,2013-06-05 04:02:00,
2013-06-04 23:33:00,63.0,62.0,-100.00,East,99,3.0,6.0,96,0.00,,,0.28,0.000000,,2013-06-05 04:33:00,
2013-06-04 23:42:00,63.0,62.0,-100.00,East,99,3.0,6.0,96,0.00,,,0.28,0.000000,,2013-06-05 04:42:00,
2013-06-04 23:53:00,63.0,62.0,-100.00,East,99,3.0,6.0,96,0.00,,,0.28,0.000000,,2013-06-05 04:53:00,